• Join FlightAware (Why Join?)
  • Login
  • US Flag 
01:38AM EDT


 

Airport Tracker/Info


-or-


 

Live Flight TrackerFlight Track Log ✈ SWA167 ✈ 30-Jun-2013 ✈ KSTL - KHOU

Flight Track Log - Related Links

Times and Time Zones

All times are in EDT time to prevent confusion due to time zone crossing. See the SWA167 flight status page for this flight to view local times or setup timezone preferences in your user account.

Time Position Orientation Groundspeed Altitude Reporting Facility
EDT Latitude Longitude Course Direction KTS MPH feet Rate Location/Type
08:10PM 38.7131 -90.5075 219° Southwest 291 335 6,700  Level Kansas City Center
08:11PM 38.6336 -90.5422 199° South 303 349 10,100 3,060 Climbing Kansas City Center
08:12PM 38.5403 -90.5406 179° South 346 398 13,000 3,240 Climbing Kansas City Center
08:13PM 38.4353 -90.5236 173° South 358 412 16,800 3,480 Climbing Kansas City Center
08:14PM 38.1436 -90.7359 205° Southwest  Level Estimated
08:14PM 38.3508 -90.5853 210° Southwest 378 435 20,200  Level Kansas City Center
08:15PM 38.2458 -90.6728 213° Southwest 382 440 23,500 2,400 Climbing Kansas City Center
08:16PM 38.1364 -90.7203 199° South 411 473 25,200 1,560 Climbing Kansas City Center
08:17PM 38.0264 -90.7897 206° Southwest 436 502 26,800 1,920 Climbing Kansas City Center
08:18PM 37.9128 -90.8639 207° Southwest 454 522 29,200 2,040 Climbing Kansas City Center
08:19PM 37.8056 -90.9394 209° Southwest 446 513 31,100 1,320 Climbing Kansas City Center
08:20PM 37.6850 -90.9878 198° South 454 522 32,000 1,020 Climbing Kansas City Center
08:21PM 37.5514 -91.0436 198° South 454 522 33,300 1,320 Climbing Kansas City Center
08:23PM 37.4333 -91.0939 199° South 448 516 34,800 1,500 Climbing Kansas City Center
08:24PM 37.3103 -91.1439 198° South 455 524 36,400 1,500 Climbing Kansas City Center
08:25PM 37.1889 -91.1936 198° South 456 525 38,000 1,140 Climbing Kansas City Center
08:26PM 37.0664 -91.2422 198° South 458 527 38,800 960 Climbing Kansas City Center
08:27PM 36.9178 -91.3033 198° South 462 532 40,000 540 Climbing Kansas City Center
08:28PM 36.7931 -91.3528 198° South 465 535 40,000  Level Kansas City Center
08:29PM 36.6708 -91.4031 198° South 463 533 40,000  Level Kansas City Center
08:30PM 36.5433 -91.4536 198° South 465 535 40,000  Level Kansas City Center
08:31PM 36.4314 -91.4997 198° South 465 535 40,000  Level Kansas City Center
08:32PM 36.2633 -91.5667 198° South 470 541 40,000  Level Memphis Center
08:33PM 36.1378 -91.6164 198° South 470 541 40,000  Level Memphis Center
08:34PM 36.0183 -91.6658 199° South 470 541 40,000  Level Memphis Center
08:35PM 35.9075 -91.7050 196° South 464 534 40,000  Level Memphis Center
08:36PM 35.7839 -91.7567 199° South 464 534 40,000  Level Memphis Center
08:37PM 35.6581 -91.8033 197° South 469 540 40,000  Level Memphis Center
08:38PM 35.5344 -91.8494 197° South 469 540 40,000  Level Memphis Center
08:39PM 35.4131 -91.8983 198° South 469 540 40,000  Level Memphis Center
08:40PM 35.2894 -91.9469 198° South 469 540 40,000  Level Memphis Center
08:41PM 35.1553 -91.9953 196° South 469 540 40,000  Level Memphis Center
08:42PM 35.0314 -92.0461 199° South 464 534 40,000  Level Memphis Center
08:43PM 34.9097 -92.0917 197° South 464 534 40,000  Level Memphis Center
08:44PM 34.7881 -92.1372 197° South 464 534 40,000  Level Memphis Center
08:45PM 34.6644 -92.1828 197° South 464 534 40,000  Level Memphis Center
08:46PM 34.5369 -92.2053 188° South 459 528 40,000  Level Memphis Center
08:47PM 34.4092 -92.2300 189° South 464 534 40,000  Level Memphis Center
08:48PM 34.2772 -92.2575 190° South 470 541 40,000  Level Memphis Center
08:49PM 34.1456 -92.2822 189° South 475 547 40,000  Level Memphis Center
08:50PM 33.9700 -92.3272 192° South 468 539 40,000  Level Fort Worth Center
08:51PM 33.8625 -92.3986 209° Southwest 445 512 40,000  Level Fort Worth Center
08:52PM 33.7547 -92.4722 210° Southwest 450 518 40,000  Level Fort Worth Center
08:53PM 33.6469 -92.5406 208° Southwest 445 512 40,000  Level Fort Worth Center
08:54PM 33.5408 -92.6089 208° Southwest 445 512 40,000  Level Fort Worth Center
08:55PM 33.4308 -92.6794 208° Southwest 445 512 40,000  Level Fort Worth Center
08:56PM 33.3250 -92.7447 207° Southwest 445 512 40,000  Level Fort Worth Center
08:57PM 33.2211 -92.8147 209° Southwest 440 506 40,000  Level Fort Worth Center
08:58PM 33.1150 -92.8800 207° Southwest 440 506 40,000  Level Fort Worth Center
08:59PM 33.0067 -92.9497 208° Southwest 440 506 40,000  Level Fort Worth Center
09:00PM 32.9047 -93.0142 208° Southwest 435 501 40,000  Level Fort Worth Center
09:01PM 32.8006 -93.0811 208° Southwest 430 495 40,000  Level Fort Worth Center
09:02PM 32.6964 -93.1478 208° Southwest 430 495 40,000  Level Fort Worth Center
09:03PM 32.5900 -93.2144 208° Southwest 430 495 40,000  Level Fort Worth Center
09:04PM 32.4839 -93.2811 208° Southwest 430 495 40,000  Level Fort Worth Center
09:05PM 32.3794 -93.3472 208° Southwest 430 495 40,000  Level Fort Worth Center
09:06PM 32.2650 -93.4211 209° Southwest 430 495 40,000  Level Fort Worth Center
09:07PM 32.1789 -93.4717 206° Southwest 430 495 40,000  Level Fort Worth Center
09:08PM 32.0667 -93.5525 211° Southwest 430 495 40,000  Level Fort Worth Center
09:10PM 31.9378 -93.6303 207° Southwest 431 496 40,000  Level Houston Center
09:11PM 31.8331 -93.6958 208° Southwest 430 495 40,000  Level Houston Center
09:12PM 31.7242 -93.7625 208° Southwest 434 499 40,000  Level Houston Center
09:13PM 31.6172 -93.8283 208° Southwest 433 498 40,000  Level Houston Center
09:14PM 31.4889 -93.9081 208° Southwest 434 499 40,000  Level Houston Center
09:15PM 31.3817 -93.9736 208° Southwest 433 498 40,000 -180 Level Houston Center
09:16PM 31.2736 -94.0406 208° Southwest 436 502 39,700 -1,380 Descending Houston Center
09:17PM 31.1678 -94.1050 208° Southwest 428 493 37,200 -2,760 Descending Houston Center
09:18PM 31.0608 -94.1714 208° Southwest 430 495 34,200 -3,420 Descending Houston Center
09:19PM 30.9486 -94.2397 208° Southwest 448 516 30,300 -3,300 Descending Houston Center
09:20PM 30.8331 -94.3094 207° Southwest 461 531 27,600 -2,580 Descending Houston Center
09:21PM 30.7231 -94.3767 208° Southwest 447 514 25,100 -2,520 Descending Houston Center
09:22PM 30.6142 -94.4439 208° Southwest 428 493 22,500 -2,340 Descending Houston Center
09:23PM 30.5164 -94.5033 208° Southwest 412 474 20,400 -2,280 Descending Houston Center
09:24PM 30.4292 -94.6203 229° Southwest 372 428 17,600 -2,460 Descending Houston Center
09:25PM 30.3758 -94.7033 233° Southwest 371 427 15,400 -2,400 Descending Houston Center
09:26PM 30.3147 -94.7972 233° Southwest 368 423 13,100 -1,560 Descending Houston Center
09:27PM 30.2572 -94.8872 234° Southwest 356 410 12,300 -900 Descending Houston Center
09:28PM 30.2014 -94.9747 234° Southwest 345 397 11,300 -1,080 Descending Houston Center
09:29PM 30.1278 -95.0722 229° Southwest 321 369 10,100 -660 Descending Houston Center
09:30PM 30.0664 -95.1011 202° Southwest 312 359 10,000 -60 Descending Houston Center
09:31PM 29.9683 -95.1425 200° South 305 351 10,000  Level Houston Center
09:32PM 29.9108 -95.1678 201° Southwest 292 336 10,000 -300 Level Houston Center
09:33PM 29.8192 -95.1872 190° South 275 316 9,400 -600 Descending Houston Center
09:34PM 29.7661 -95.1783 172° South 274 315 8,800 -960 Descending Houston Center
09:35PM 29.6806 -95.1647 172° South 260 299 7,600 -1,140 Descending Houston Center
09:36PM 29.6200 -95.1881 199° South 243 280 6,500 -1,260 Descending Houston Center
09:37PM 29.5686 -95.2347 218° Southwest 240 276 5,100 -1,260 Descending Houston Center
09:38PM 29.5206 -95.2831 221° Southwest 232 267 4,000 -960 Descending Houston Center
09:39PM 29.5297 -95.3306 283° West 171 197 3,200 -1,020 Descending Houston Center
09:40PM 29.5600 -95.3606 319° Northwest 149 171 2,000 -1,020 Descending Houston Center
09:41PM 29.5925 -95.3378 31° Northeast 144 166 1,200 -720 Descending Houston Center
09:42PM 29.6175 -95.3097 44° Northeast 129 148 600 -600 Descending Houston Center
09:43PM 29.6453 -95.2794 43° Northeast 126 145 100 -540 Descending Houston Center